createdAt,value
2023-02-11T00:01:44.798Z,58.83
2023-02-11T00:04:34.550Z,53.65
2023-02-11T00:07:21.164Z,53.63
2023-02-11T00:10:08.692Z,51.90
2023-02-11T00:12:57.823Z,61.63
2023-02-11T00:15:44.161Z,52.00
2023-02-11T00:18:30.971Z,57.63
2023-02-11T00:21:19.618Z,47.65
2023-02-11T00:24:06.788Z,44.70
2023-02-11T00:26:53.110Z,49.08
2023-02-11T00:29:40.151Z,44.58
2023-02-11T00:32:26.949Z,49.50
2023-02-11T00:35:16.192Z,43.60
2023-02-11T00:38:02.855Z,54.22
2023-02-11T00:40:51.181Z,46.83
2023-02-11T00:43:37.615Z,45.60
2023-02-11T00:46:27.214Z,41.80
2023-02-11T00:49:14.462Z,44.78
2023-02-11T00:52:00.954Z,43.38
2023-02-11T00:54:47.579Z,46.67
2023-02-11T00:57:34.521Z,42.10
2023-02-11T01:00:22.930Z,46.58
2023-02-11T01:03:09.921Z,43.05
2023-02-11T01:05:56.318Z,51.85
2023-02-11T01:08:43.498Z,49.58
2023-02-11T01:11:29.967Z,45.08
2023-02-11T01:14:17.079Z,49.22
2023-02-11T01:17:06.224Z,48.83
2023-02-11T01:19:53.206Z,48.38
2023-02-11T01:22:40.544Z,46.42
2023-02-11T01:25:28.188Z,45.35
2023-02-11T01:28:23.143Z,48.55
2023-02-11T01:31:10.287Z,43.83
2023-02-11T01:33:56.808Z,45.60
2023-02-11T01:36:43.414Z,48.05
2023-02-11T01:39:29.662Z,46.72
2023-02-11T01:42:17.987Z,54.75
2023-02-11T01:45:42.855Z,49.88
2023-02-11T01:48:39.693Z,52.53
2023-02-11T01:51:30.905Z,47.17
2023-02-11T01:54:40.598Z,49.58
2023-02-11T01:57:30.151Z,49.60
2023-02-11T02:00:21.692Z,46.15
2023-02-11T02:03:11.892Z,48.67
2023-02-11T02:06:04.417Z,45.87
2023-02-11T02:08:55.059Z,43.33
2023-02-11T02:11:41.597Z,40.90
2023-02-11T02:14:30.953Z,46.10
2023-02-11T02:17:43.071Z,43.90
2023-02-11T02:20:44.518Z,51.33
2023-02-11T02:24:05.230Z,49.10
2023-02-11T02:27:17.522Z,45.33
2023-02-11T02:30:28.406Z,48.15
2023-02-11T02:33:37.890Z,42.25
2023-02-11T02:36:38.396Z,49.05
2023-02-11T02:39:31.959Z,48.15
2023-02-11T02:42:20.473Z,51.67
2023-02-11T02:45:08.061Z,46.15
2023-02-11T02:47:54.573Z,52.13
2023-02-11T02:50:41.262Z,52.38
2023-02-11T02:53:48.632Z,46.53
2023-02-11T02:56:44.829Z,45.53
2023-02-11T02:59:43.878Z,47.50
2023-02-11T03:02:48.249Z,51.50
2023-02-11T03:05:54.128Z,50.42
2023-02-11T03:08:46.837Z,52.30
2023-02-11T03:11:34.875Z,52.60
2023-02-11T03:14:22.427Z,49.15
2023-02-11T03:17:10.030Z,47.80
2023-02-11T03:19:57.282Z,56.10
2023-02-11T03:23:07.799Z,49.33
2023-02-11T03:25:58.301Z,50.58
2023-02-11T03:28:55.557Z,50.15
2023-02-11T03:31:44.613Z,50.58
2023-02-11T03:34:44.655Z,45.70
2023-02-11T03:37:37.699Z,46.53
2023-02-11T03:40:32.146Z,46.65
2023-02-11T03:43:21.283Z,48.85
2023-02-11T03:46:09.043Z,53.50
2023-02-11T03:49:00.635Z,51.95
2023-02-11T03:51:52.685Z,48.35
2023-02-11T03:54:42.027Z,52.90
2023-02-11T03:57:29.001Z,50.05
2023-02-11T04:00:15.917Z,43.67
2023-02-11T04:03:03.426Z,49.35
2023-02-11T04:05:51.962Z,59.20
2023-02-11T04:08:38.833Z,53.20
2023-02-11T04:11:27.786Z,48.13
2023-02-11T04:14:14.451Z,54.92
2023-02-11T04:17:00.766Z,57.38
2023-02-11T04:19:47.200Z,52.42
2023-02-11T04:22:33.801Z,50.08
2023-02-11T04:25:21.015Z,50.00
2023-02-11T04:28:07.550Z,61.38
2023-02-11T04:30:54.568Z,56.20
2023-02-11T04:33:40.875Z,49.75
2023-02-11T04:36:27.491Z,52.50
2023-02-11T04:39:14.020Z,57.47
2023-02-11T04:42:00.861Z,60.67
2023-02-11T04:44:47.151Z,51.83
2023-02-11T04:47:34.636Z,58.78
2023-02-11T04:50:21.305Z,56.75
2023-02-11T04:53:07.927Z,56.65
2023-02-11T04:55:55.391Z,51.83
2023-02-11T04:58:47.382Z,51.65
2023-02-11T05:01:33.920Z,53.45
2023-02-11T05:04:22.905Z,60.05
2023-02-11T05:07:12.253Z,55.88
2023-02-11T05:09:59.187Z,55.28
2023-02-11T05:12:48.466Z,54.58
2023-02-11T05:15:38.357Z,55.17
2023-02-11T05:18:27.587Z,63.10
2023-02-11T05:21:17.446Z,57.00
2023-02-11T05:24:04.151Z,57.22
2023-02-11T05:26:58.299Z,56.88
2023-02-11T05:29:44.690Z,59.70
2023-02-11T05:32:31.052Z,60.00
2023-02-11T05:35:17.628Z,53.05
2023-02-11T05:38:04.389Z,67.30
2023-02-11T05:40:51.042Z,57.83
2023-02-11T05:43:38.035Z,63.47
2023-02-11T05:46:24.368Z,61.00
2023-02-11T05:49:10.798Z,66.80
2023-02-11T05:51:57.462Z,57.90
2023-02-11T05:54:44.528Z,66.72
2023-02-11T05:57:31.016Z,62.85
2023-02-11T06:00:18.067Z,63.85
2023-02-11T06:03:04.826Z,69.70
2023-02-11T06:05:52.149Z,67.05
2023-02-11T06:08:44.430Z,60.25
2023-02-11T06:11:30.997Z,61.05
2023-02-11T06:14:17.383Z,53.80
2023-02-11T06:17:04.267Z,76.57
2023-02-11T06:19:53.078Z,64.93
2023-02-11T06:22:39.695Z,66.85
2023-02-11T06:25:26.186Z,73.30
2023-02-11T06:28:13.207Z,74.93
2023-02-11T06:31:06.638Z,72.85
2023-02-11T06:33:55.204Z,77.57
2023-02-11T06:36:41.848Z,66.30
2023-02-11T06:39:28.355Z,76.93
2023-02-11T06:42:14.926Z,75.57
2023-02-11T06:45:01.600Z,73.90
2023-02-11T06:47:48.299Z,69.43
2023-02-11T06:50:37.336Z,77.72
2023-02-11T06:53:25.359Z,86.35
2023-02-11T06:56:17.811Z,78.20
2023-02-11T06:59:04.473Z,74.80
2023-02-11T07:01:51.063Z,73.00
2023-02-11T07:04:37.367Z,82.68
2023-02-11T07:07:23.774Z,70.95
2023-02-11T07:10:10.371Z,69.90
2023-02-11T07:12:58.786Z,75.78
2023-02-11T07:15:45.361Z,76.90
2023-02-11T07:18:32.168Z,66.05
2023-02-11T07:21:21.181Z,71.50
2023-02-11T07:24:11.078Z,73.18
2023-02-11T07:26:57.626Z,86.82
2023-02-11T07:29:47.035Z,74.60
2023-02-11T07:32:35.649Z,82.88
2023-02-11T07:35:23.742Z,84.20
2023-02-11T07:38:10.971Z,88.57
2023-02-11T07:41:03.983Z,86.05
2023-02-11T07:43:52.115Z,86.10
2023-02-11T07:46:43.094Z,84.07
2023-02-11T07:49:29.746Z,86.82
2023-02-11T07:52:16.153Z,96.53
2023-02-11T07:55:04.862Z,84.50
2023-02-11T07:57:52.325Z,95.85
2023-02-11T08:00:43.355Z,95.75
2023-02-11T08:03:31.149Z,88.03
2023-02-11T08:06:22.488Z,88.68
2023-02-11T08:09:14.555Z,87.15
2023-02-11T08:12:11.843Z,85.43
2023-02-11T08:14:59.697Z,95.55
2023-02-11T08:17:47.784Z,75.32
2023-02-11T08:20:34.220Z,80.63
2023-02-11T08:23:20.862Z,79.82
2023-02-11T08:26:13.911Z,85.75
2023-02-11T08:29:01.699Z,81.50
2023-02-11T08:31:48.432Z,194.60
2023-02-11T08:34:37.903Z,127.28
2023-02-11T08:37:26.092Z,104.63
2023-02-11T08:40:12.483Z,90.15
2023-02-11T08:42:59.101Z,95.55
2023-02-11T08:45:45.619Z,96.05
2023-02-11T08:48:32.547Z,90.57
2023-02-11T08:51:27.353Z,78.25
2023-02-11T08:54:14.441Z,79.55
2023-02-11T08:57:02.089Z,78.00
2023-02-11T08:59:49.839Z,79.75
2023-02-11T09:02:36.259Z,83.68
2023-02-11T09:05:26.129Z,82.95
2023-02-11T09:08:15.910Z,80.22
2023-02-11T09:11:03.909Z,65.47
2023-02-11T09:13:52.559Z,79.00
2023-02-11T09:16:43.532Z,79.87
2023-02-11T09:19:29.754Z,80.93
2023-02-11T09:22:16.704Z,70.03
2023-02-11T09:25:06.565Z,79.50
2023-02-11T09:27:53.907Z,72.30
2023-02-11T09:30:40.131Z,66.95
2023-02-11T09:33:27.320Z,68.68
2023-02-11T09:36:16.554Z,79.50
2023-02-11T09:39:05.176Z,72.28
2023-02-11T09:42:04.665Z,73.93
2023-02-11T09:44:53.887Z,80.85
2023-02-11T09:47:47.428Z,73.70
2023-02-11T09:50:58.130Z,65.55
2023-02-11T09:53:45.044Z,66.70
2023-02-11T09:56:31.901Z,69.25
2023-02-11T09:59:18.910Z,68.30
2023-02-11T10:02:17.002Z,67.53
2023-02-11T10:05:24.815Z,85.25
2023-02-11T10:08:26.425Z,69.80
2023-02-11T10:14:55.656Z,67.07
2023-02-11T10:18:15.202Z,74.75
2023-02-11T10:21:18.074Z,81.20
2023-02-11T10:24:11.120Z,82.85
2023-02-11T10:26:58.395Z,80.30
2023-02-11T10:29:52.770Z,81.47
2023-02-11T10:32:45.160Z,73.25
2023-02-11T10:35:31.998Z,76.25
2023-02-11T10:38:19.009Z,69.20
2023-02-11T10:41:06.628Z,74.50
2023-02-11T10:43:53.073Z,77.05
2023-02-11T10:46:40.451Z,80.65
2023-02-11T10:49:39.327Z,79.95
2023-02-11T10:52:27.988Z,73.53
2023-02-11T10:55:18.459Z,80.18
2023-02-11T10:58:05.011Z,72.28
2023-02-11T11:00:53.672Z,67.57
2023-02-11T11:03:47.055Z,65.25
2023-02-11T11:06:34.040Z,71.82
2023-02-11T11:09:31.479Z,69.90
2023-02-11T11:12:28.096Z,61.40
2023-02-11T11:15:18.330Z,63.42
2023-02-11T11:18:22.173Z,53.35
2023-02-11T11:21:20.176Z,56.05
2023-02-11T11:24:27.654Z,55.85
2023-02-11T11:27:21.953Z,60.58
2023-02-11T11:30:16.906Z,54.30
2023-02-11T11:33:03.424Z,66.40
2023-02-11T11:36:02.072Z,63.97
2023-02-11T11:39:00.754Z,57.40
2023-02-11T11:41:52.544Z,65.45
2023-02-11T11:44:39.979Z,78.50
2023-02-11T11:48:10.854Z,61.97
2023-02-11T11:51:03.196Z,61.38
2023-02-11T11:53:54.285Z,86.03
2023-02-11T11:56:57.249Z,75.50
2023-02-11T11:59:43.872Z,65.75
2023-02-11T12:03:12.001Z,77.40
2023-02-11T12:06:46.796Z,75.80
2023-02-11T12:10:03.512Z,62.10
2023-02-11T12:12:55.155Z,57.58
2023-02-11T12:18:44.971Z,68.40
2023-02-11T12:21:56.951Z,61.78
2023-02-11T12:24:55.348Z,63.05
2023-02-11T12:27:44.367Z,62.28
2023-02-11T12:30:47.909Z,56.65
2023-02-11T12:33:44.641Z,54.55
2023-02-11T12:36:54.636Z,52.00
2023-02-11T12:39:49.884Z,53.55
2023-02-11T12:43:03.703Z,54.53
2023-02-11T12:46:01.953Z,45.72
2023-02-11T12:48:51.509Z,52.17
2023-02-11T12:52:02.892Z,48.97
2023-02-11T12:54:56.019Z,45.40
2023-02-11T12:57:44.710Z,44.50
2023-02-11T13:00:37.348Z,41.03
2023-02-11T13:03:40.953Z,47.00
2023-02-11T13:06:40.915Z,44.72
2023-02-11T13:09:32.391Z,46.33
2023-02-11T13:12:37.962Z,45.40
2023-02-11T13:15:25.983Z,41.13
2023-02-11T13:18:20.122Z,44.67
2023-02-11T13:21:32.024Z,44.67
2023-02-11T13:24:38.708Z,38.40
2023-02-11T13:27:38.797Z,36.90
2023-02-11T13:30:28.583Z,41.08
2023-02-11T13:33:24.287Z,42.50
2023-02-11T13:36:13.875Z,38.33
2023-02-11T13:39:20.308Z,38.28
2023-02-11T13:42:06.749Z,41.03
2023-02-11T13:44:53.846Z,36.15
2023-02-11T13:47:41.936Z,39.40
2023-02-11T13:50:28.912Z,43.88
2023-02-11T13:53:16.222Z,39.25
2023-02-11T13:56:29.365Z,38.47
2023-02-11T13:59:25.140Z,40.70
2023-02-11T14:02:51.391Z,35.60
2023-02-11T14:06:28.506Z,34.15
2023-02-11T14:09:14.726Z,33.47
2023-02-11T14:12:23.426Z,37.72
2023-02-11T14:15:12.740Z,40.33
2023-02-11T14:18:04.021Z,35.33
2023-02-11T14:20:50.993Z,33.83
2023-02-11T14:23:40.331Z,32.75
2023-02-11T14:27:04.738Z,32.78
2023-02-11T14:30:35.329Z,33.88
2023-02-11T14:33:46.996Z,37.25
2023-02-11T14:36:53.941Z,50.75
2023-02-11T14:39:54.972Z,38.67
2023-02-11T14:42:52.931Z,42.35
2023-02-11T14:45:49.548Z,38.38
2023-02-11T14:48:46.342Z,41.28
2023-02-11T14:51:41.294Z,40.85
2023-02-11T14:54:36.102Z,37.55
2023-02-11T14:57:33.965Z,58.17
2023-02-11T15:00:25.188Z,51.30
2023-02-11T15:03:28.316Z,47.65
2023-02-11T15:06:27.378Z,42.30
2023-02-11T15:09:13.633Z,47.80
2023-02-11T15:12:00.471Z,52.75
2023-02-11T15:14:49.585Z,43.50
2023-02-11T15:17:36.489Z,57.60
2023-02-11T15:20:27.727Z,74.10
2023-02-11T15:23:28.549Z,47.60
2023-02-11T15:26:22.349Z,46.50
2023-02-11T15:29:17.755Z,49.25
2023-02-11T15:32:15.138Z,49.67
2023-02-11T15:35:06.329Z,46.70
2023-02-11T15:37:53.462Z,47.67
2023-02-11T15:40:40.191Z,41.25
2023-02-11T15:43:48.857Z,46.30
2023-02-11T15:46:39.968Z,46.47
2023-02-11T15:49:26.885Z,48.45
2023-02-11T15:52:24.396Z,47.08
2023-02-11T15:55:14.418Z,62.10
2023-02-11T15:58:01.938Z,43.00
2023-02-11T16:00:50.908Z,47.00
2023-02-11T16:03:45.637Z,48.85
2023-02-11T16:06:40.642Z,40.45
2023-02-11T16:09:35.770Z,50.17
2023-02-11T16:12:30.237Z,44.00
2023-02-11T16:15:35.148Z,46.75
2023-02-11T16:18:37.297Z,46.08
2023-02-11T16:21:40.099Z,45.45
2023-02-11T16:24:33.070Z,48.50
2023-02-11T16:27:49.184Z,52.15
2023-02-11T16:30:38.642Z,56.90
2023-02-11T16:33:29.984Z,63.85
2023-02-11T16:36:20.142Z,54.97
2023-02-11T16:39:07.171Z,52.57
2023-02-11T16:41:54.046Z,46.33
2023-02-11T16:44:41.296Z,55.33
2023-02-11T16:47:35.033Z,51.90
2023-02-11T16:50:24.496Z,48.95
2023-02-11T16:53:21.909Z,48.22
2023-02-11T16:59:04.179Z,44.60
2023-02-11T17:02:02.218Z,39.70
2023-02-11T17:04:52.733Z,42.58
2023-02-11T17:07:44.765Z,45.10
2023-02-11T17:10:32.600Z,46.92
2023-02-11T17:13:19.666Z,72.65
2023-02-11T17:16:06.667Z,63.05
2023-02-11T17:18:54.017Z,45.80
2023-02-11T17:21:48.534Z,52.60
2023-02-11T17:24:36.512Z,51.78
2023-02-11T17:27:23.961Z,49.20
2023-02-11T17:30:16.495Z,54.45
2023-02-11T17:33:05.976Z,57.45
2023-02-11T17:35:54.070Z,46.70
2023-02-11T17:38:41.366Z,48.65
2023-02-11T17:41:29.539Z,51.08
2023-02-11T17:44:16.759Z,46.63
2023-02-11T17:47:06.546Z,56.28
2023-02-11T17:49:55.181Z,45.95
2023-02-11T17:52:41.958Z,52.13
2023-02-11T17:55:29.084Z,43.50
2023-02-11T17:58:18.894Z,51.15
2023-02-11T18:01:07.206Z,54.53
2023-02-11T18:03:56.782Z,52.90
2023-02-11T18:06:44.715Z,46.42
2023-02-11T18:09:32.124Z,38.78
2023-02-11T18:12:27.197Z,40.63
2023-02-11T18:15:17.938Z,40.05
2023-02-11T18:18:05.015Z,40.05
2023-02-11T18:20:59.917Z,40.08
2023-02-11T18:23:46.718Z,39.78
2023-02-11T18:26:35.880Z,42.53
2023-02-11T18:29:22.828Z,39.10
2023-02-11T18:32:10.902Z,39.15
2023-02-11T18:35:00.418Z,37.90
2023-02-11T18:37:48.721Z,41.95
2023-02-11T18:40:39.491Z,36.05
2023-02-11T18:43:32.260Z,35.80
2023-02-11T18:46:20.907Z,43.30
2023-02-11T18:49:13.652Z,38.13
2023-02-11T18:52:03.196Z,48.33
2023-02-11T18:54:52.514Z,46.45
2023-02-11T18:57:39.187Z,50.38
2023-02-11T19:00:31.238Z,47.55
2023-02-11T19:03:20.317Z,64.07
2023-02-11T19:06:20.328Z,69.18
2023-02-11T19:09:10.120Z,45.85
2023-02-11T19:11:58.170Z,40.83
2023-02-11T19:14:45.566Z,38.97
2023-02-11T19:17:32.153Z,32.53
2023-02-11T19:20:21.541Z,34.67
2023-02-11T19:23:12.122Z,29.57
2023-02-11T19:25:58.533Z,42.35
2023-02-11T19:28:48.349Z,38.05
2023-02-11T19:31:35.341Z,32.28
2023-02-11T19:34:24.097Z,31.20
2023-02-11T19:37:13.890Z,36.72
2023-02-11T19:40:04.155Z,33.97
2023-02-11T19:42:52.178Z,28.42
2023-02-11T19:45:39.462Z,22.48
2023-02-11T19:48:29.230Z,26.67
2023-02-11T19:51:17.340Z,22.80
2023-02-11T19:54:04.443Z,22.88
2023-02-11T19:56:51.242Z,23.25
2023-02-11T19:59:39.718Z,26.38
2023-02-11T20:02:26.661Z,21.92
2023-02-11T20:05:15.641Z,32.38
2023-02-11T20:08:02.406Z,25.40
2023-02-11T20:10:48.842Z,23.70
2023-02-11T20:13:37.794Z,24.58
2023-02-11T20:16:45.125Z,23.35
2023-02-11T20:19:34.672Z,26.48
2023-02-11T20:22:21.762Z,25.08
2023-02-11T20:25:11.108Z,27.98
2023-02-11T20:27:57.483Z,30.92
2023-02-11T20:30:44.711Z,35.42
2023-02-11T20:33:31.846Z,36.28
2023-02-11T20:36:21.895Z,33.28
2023-02-11T20:39:17.327Z,31.17
2023-02-11T20:42:03.982Z,28.60
2023-02-11T20:44:50.805Z,27.20
2023-02-11T20:47:38.368Z,29.88
2023-02-11T20:50:24.976Z,24.50
2023-02-11T20:53:11.563Z,26.30
2023-02-11T20:56:02.114Z,20.40
2023-02-11T21:01:42.997Z,22.00
2023-02-11T21:04:32.912Z,18.77
2023-02-11T21:07:19.110Z,21.73
2023-02-11T21:10:06.379Z,23.98
2023-02-11T21:12:52.694Z,28.75
2023-02-11T21:15:39.546Z,29.27
2023-02-11T21:18:28.765Z,27.30
2023-02-11T21:21:16.240Z,25.52
2023-02-11T21:24:03.101Z,29.90
2023-02-11T21:26:50.081Z,24.52
2023-02-11T21:29:45.720Z,27.60
2023-02-11T21:32:40.794Z,24.83
2023-02-11T21:35:27.142Z,22.83
2023-02-11T21:38:15.719Z,22.02
2023-02-11T21:41:06.006Z,29.20
2023-02-11T21:43:53.179Z,25.25
2023-02-11T21:46:39.757Z,31.98
2023-02-11T21:49:26.657Z,25.60
2023-02-11T21:52:13.024Z,30.13
2023-02-11T21:54:59.624Z,37.60
2023-02-11T21:57:46.066Z,39.25
2023-02-11T22:00:33.931Z,37.33
2023-02-11T22:03:22.648Z,28.77
2023-02-11T22:06:15.331Z,28.30
2023-02-11T22:09:06.467Z,21.73
2023-02-11T22:11:53.809Z,30.42
2023-02-11T22:14:40.518Z,24.02
2023-02-11T22:17:27.227Z,26.42
2023-02-11T22:20:13.682Z,20.58
2023-02-11T22:23:00.464Z,27.33
2023-02-11T22:25:47.195Z,29.50
2023-02-11T22:28:34.708Z,20.48
2023-02-11T22:31:30.013Z,22.98
2023-02-11T22:34:18.825Z,20.75
2023-02-11T22:37:13.627Z,22.40
2023-02-11T22:40:00.227Z,19.20
2023-02-11T22:42:46.799Z,19.55
2023-02-11T22:45:35.003Z,24.02
2023-02-11T22:48:23.102Z,25.35
2023-02-11T22:51:15.013Z,21.67
2023-02-11T22:54:05.532Z,21.63
2023-02-11T22:56:52.157Z,23.75
2023-02-11T22:59:40.786Z,21.75
2023-02-11T23:02:27.608Z,22.65
2023-02-11T23:05:14.043Z,23.85
2023-02-11T23:08:00.758Z,17.75
2023-02-11T23:10:49.174Z,22.20
2023-02-11T23:13:37.765Z,22.58
2023-02-11T23:16:26.749Z,20.77
2023-02-11T23:19:13.557Z,26.20
2023-02-11T23:22:00.278Z,23.67
2023-02-11T23:24:47.129Z,36.63
2023-02-11T23:27:33.694Z,38.47
2023-02-11T23:30:23.740Z,21.20
2023-02-11T23:33:09.899Z,34.92
2023-02-11T23:35:56.761Z,26.73
2023-02-11T23:38:44.098Z,34.83
2023-02-11T23:41:31.323Z,34.67
2023-02-11T23:44:17.617Z,29.50
2023-02-11T23:47:04.748Z,32.22
2023-02-11T23:49:51.188Z,30.95
2023-02-11T23:52:38.240Z,30.80
2023-02-11T23:55:24.657Z,34.97
2023-02-11T23:58:13.125Z,30.55
